createdAt,value
2023-03-22T00:00:19.069Z,90.04
2023-03-22T00:11:17.584Z,89.98
2023-03-22T00:16:22.287Z,90.87
2023-03-22T00:21:27.838Z,90.64
2023-03-22T00:26:31.860Z,89.66
2023-03-22T00:31:36.114Z,89.35
2023-03-22T00:36:41.466Z,90.07
2023-03-22T00:41:45.401Z,90.87
2023-03-22T00:46:49.446Z,90.96
2023-03-22T00:51:55.354Z,90.52
2023-03-22T00:56:59.511Z,91.12
2023-03-22T01:02:04.337Z,90.80
2023-03-22T01:12:40.877Z,92.10
2023-03-22T01:17:45.082Z,90.76
2023-03-22T01:22:50.714Z,90.13
2023-03-22T01:27:56.140Z,90.28
2023-03-22T01:33:00.217Z,90.20
2023-03-22T01:38:06.081Z,89.83
2023-03-22T01:43:17.300Z,90.30
2023-03-22T01:48:29.987Z,90.57
2023-03-22T01:53:40.372Z,90.15
2023-03-22T01:58:44.814Z,90.82
2023-03-22T02:03:56.625Z,91.60
2023-03-22T02:09:03.914Z,91.83
2023-03-22T02:14:43.331Z,92.37
2023-03-22T02:20:42.859Z,92.00
2023-03-22T02:26:24.061Z,92.64
2023-03-22T02:31:58.389Z,94.18
2023-03-22T02:37:29.984Z,95.71
2023-03-22T02:42:46.084Z,96.58
2023-03-22T02:47:57.174Z,97.00
2023-03-22T02:53:07.189Z,97.48
2023-03-22T02:58:17.432Z,97.31
2023-03-22T03:03:25.559Z,96.34
2023-03-22T03:08:31.332Z,94.33
2023-03-22T03:19:16.889Z,92.27
2023-03-22T03:24:27.996Z,93.06
2023-03-22T03:29:39.717Z,93.48
2023-03-22T03:34:51.480Z,93.91
2023-03-22T03:39:59.605Z,94.07
2023-03-22T03:45:04.155Z,91.76
2023-03-22T03:50:10.593Z,93.09
2023-03-22T03:55:14.546Z,92.60
2023-03-22T04:00:20.041Z,93.13
2023-03-22T04:05:46.132Z,93.92
2023-03-22T04:10:51.890Z,94.36
2023-03-22T04:16:02.096Z,93.62
2023-03-22T04:21:12.265Z,95.65
2023-03-22T04:26:45.642Z,95.06
2023-03-22T04:32:05.139Z,95.05
2023-03-22T04:37:17.604Z,97.34
2023-03-22T04:42:29.859Z,95.70
2023-03-22T04:47:43.122Z,92.66
2023-03-22T04:52:50.115Z,92.42
2023-03-22T04:57:54.770Z,92.40
2023-03-22T05:03:02.084Z,92.26
2023-03-22T05:08:16.177Z,92.63
2023-03-22T05:13:26.033Z,94.92
2023-03-22T05:18:32.854Z,93.53
2023-03-22T05:23:38.457Z,92.96
2023-03-22T05:28:42.891Z,91.69
2023-03-22T05:33:56.160Z,91.19
2023-03-22T05:39:04.836Z,91.40
2023-03-22T05:44:09.283Z,90.76
2023-03-22T05:49:16.610Z,92.81
2023-03-22T05:54:23.711Z,93.22
2023-03-22T05:59:28.890Z,92.31
2023-03-22T06:04:33.642Z,91.50
2023-03-22T06:15:14.202Z,87.42
2023-03-22T06:20:38.704Z,87.25
2023-03-22T06:25:50.366Z,87.96
2023-03-22T06:30:55.493Z,89.54
2023-03-22T06:36:09.415Z,89.22
2023-03-22T06:41:24.829Z,89.77
2023-03-22T06:46:30.128Z,88.19
2023-03-22T06:51:44.453Z,86.11
2023-03-22T06:56:50.570Z,85.66
2023-03-22T07:01:54.620Z,86.28
2023-03-22T07:06:59.546Z,87.17
2023-03-22T07:12:07.098Z,86.39
2023-03-22T07:17:12.740Z,87.52
2023-03-22T07:22:16.964Z,87.18
2023-03-22T07:27:22.894Z,86.90
2023-03-22T07:32:29.251Z,87.32
2023-03-22T07:37:46.844Z,88.25
2023-03-22T07:43:01.059Z,88.96
2023-03-22T07:48:13.841Z,86.42
2023-03-22T07:53:53.019Z,85.83
2023-03-22T07:58:58.887Z,86.63
2023-03-22T08:04:03.332Z,81.17
2023-03-22T08:09:17.001Z,79.10
2023-03-22T08:14:34.031Z,78.50
2023-03-22T08:19:41.897Z,79.71
2023-03-22T08:24:50.259Z,80.09
2023-03-22T08:30:05.778Z,80.11
2023-03-22T08:35:11.404Z,85.74
2023-03-22T08:40:15.921Z,87.82
2023-03-22T08:45:28.490Z,86.84
2023-03-22T08:50:39.946Z,85.84
2023-03-22T08:55:51.794Z,86.12
2023-03-22T09:01:21.216Z,88.92
2023-03-22T09:06:35.647Z,88.48
2023-03-22T09:11:41.423Z,86.02
2023-03-22T09:16:47.234Z,88.39
2023-03-22T09:21:52.181Z,87.73
2023-03-22T09:27:07.791Z,86.46
2023-03-22T09:32:13.354Z,86.68
2023-03-22T09:37:18.921Z,86.73
2023-03-22T09:42:38.725Z,86.62
2023-03-22T09:47:49.866Z,85.70
2023-03-22T09:52:54.920Z,85.52
2023-03-22T09:58:09.949Z,85.30
2023-03-22T10:03:33.588Z,85.98
2023-03-22T10:08:49.908Z,85.98
2023-03-22T10:14:03.406Z,84.93
2023-03-22T10:19:18.906Z,83.69
2023-03-22T10:24:28.414Z,85.19
2023-03-22T10:29:37.745Z,84.70
2023-03-22T10:34:44.041Z,83.77
2023-03-22T10:39:50.872Z,85.00
2023-03-22T10:44:59.063Z,84.12
2023-03-22T10:50:09.842Z,83.90
2023-03-22T10:55:16.928Z,82.77
2023-03-22T11:00:24.287Z,81.28
2023-03-22T11:05:31.463Z,79.94
2023-03-22T11:10:35.515Z,79.92
2023-03-22T11:15:42.535Z,78.87
2023-03-22T11:20:59.165Z,79.16
2023-03-22T11:26:13.374Z,75.96
2023-03-22T11:31:19.432Z,77.11
2023-03-22T11:36:25.479Z,79.30
2023-03-22T11:41:32.551Z,79.66
2023-03-22T11:46:38.166Z,78.98
2023-03-22T11:51:44.375Z,81.07
2023-03-22T11:56:50.485Z,79.24
2023-03-22T12:02:00.061Z,80.41
2023-03-22T12:07:15.631Z,78.90
2023-03-22T12:12:24.908Z,77.34
2023-03-22T12:17:31.802Z,77.42
2023-03-22T12:22:42.852Z,78.04
2023-03-22T12:27:50.005Z,76.86
2023-03-22T12:33:00.046Z,77.83
2023-03-22T12:38:19.810Z,77.78
2023-03-22T12:43:29.195Z,76.90
2023-03-22T12:48:38.678Z,76.73
2023-03-22T12:53:47.338Z,78.00
2023-03-22T12:58:53.817Z,77.48
2023-03-22T13:03:59.628Z,78.32
2023-03-22T13:09:16.235Z,79.38
2023-03-22T13:14:59.569Z,79.30
2023-03-22T13:20:31.379Z,79.73
2023-03-22T13:25:38.875Z,79.58
2023-03-22T13:30:50.630Z,79.38
2023-03-22T13:35:58.918Z,80.94
2023-03-22T13:41:07.372Z,82.04
2023-03-22T13:46:46.437Z,81.53
2023-03-22T13:51:51.647Z,80.86
2023-03-22T13:57:01.749Z,81.99
2023-03-22T14:02:18.586Z,81.75
2023-03-22T14:07:27.028Z,82.02
2023-03-22T14:12:37.983Z,81.20
2023-03-22T14:17:50.074Z,82.41
